Time;durP1;ratioP1;P1;durP2;ratioP2;P2;SDS_P1;SDS_P2;PMS_P1;PMS_P2;Temp;Humidity;BMP_temperature;BMP_pressure;BME280_temperature;BME280_humidity;BME280_pressure;Samples;Min_cycle;Max_cycle;Signal;HPM_P1;HPM_P2
2024/01/26 00:00:55;;;;;;;2.28;0.63;;;;;;;17.48;41.65;102294.47;16126101;19;129710;-73
2024/01/26 00:06:17;;;;;;;3.70;0.90;;;;;;;17.45;41.72;102294.91;16123646;19;129027;-74
2024/01/26 00:11:40;;;;;;;3.05;0.80;;;;;;;17.40;41.65;102291.91;16118739;19;130851;-74
2024/01/26 00:17:03;;;;;;;2.55;0.70;;;;;;;17.36;41.94;102280.38;16119539;19;130450;-74
2024/01/26 00:22:25;;;;;;;1.08;0.60;;;;;;;17.33;42.10;102268.88;16122743;19;129748;-74
2024/01/26 00:27:46;;;;;;;0.75;0.60;;;;;;;17.29;42.01;102278.63;16122318;19;130727;-73
2024/01/26 00:33:08;;;;;;;2.90;0.57;;;;;;;17.27;42.30;102292.69;16123701;19;129291;-73
2024/01/26 00:38:30;;;;;;;0.90;0.50;;;;;;;17.22;41.90;102285.00;16131848;19;130586;-72
2024/01/26 00:43:52;;;;;;;1.77;0.60;;;;;;;17.20;41.94;102278.81;16150312;19;130887;-72
2024/01/26 00:49:14;;;;;;;0.93;0.50;;;;;;;17.17;42.31;102278.38;16156473;19;130224;-73
2024/01/26 00:54:36;;;;;;;2.75;0.40;;;;;;;17.14;42.15;102276.00;16180727;19;129110;-73
2024/01/26 00:59:59;;;;;;;1.02;0.50;;;;;;;17.12;42.03;102275.34;16192906;19;130129;-73
2024/01/26 01:05:21;;;;;;;0.45;0.40;;;;;;;17.09;42.19;102268.31;16185409;19;129761;-73
2024/01/26 01:10:43;;;;;;;0.68;0.40;;;;;;;17.08;42.41;102274.91;16120190;19;129563;-73
2024/01/26 01:16:07;;;;;;;0.90;0.50;;;;;;;17.04;42.48;102268.94;16115973;19;130669;-74
2024/01/26 01:21:30;;;;;;;1.33;0.30;;;;;;;17.03;42.29;102263.59;16122461;19;130554;-73
2024/01/26 01:26:52;;;;;;;0.68;0.40;;;;;;;17.01;42.42;102249.13;16127897;19;129351;-74
2024/01/26 01:32:13;;;;;;;0.57;0.40;;;;;;;16.98;42.25;102252.31;16130813;19;130971;-74
2024/01/26 01:37:36;;;;;;;1.05;0.40;;;;;;;16.96;42.51;102249.72;16123790;19;130401;-73
2024/01/26 01:42:58;;;;;;;2.08;0.75;;;;;;;16.93;42.13;102244.59;16132133;19;129495;-73
2024/01/26 01:48:20;;;;;;;1.52;0.60;;;;;;;16.91;42.21;102242.03;16126882;19;129264;-74
2024/01/26 01:53:42;;;;;;;0.63;0.38;;;;;;;16.90;42.29;102228.44;16127681;19;129864;-73
2024/01/26 01:59:05;;;;;;;0.43;0.40;;;;;;;16.88;42.43;102225.84;16128605;19;129029;-74
2024/01/26 02:04:27;;;;;;;0.80;0.50;;;;;;;16.87;42.19;102223.31;16127728;19;130275;-73
2024/01/26 02:09:49;;;;;;;0.85;0.40;;;;;;;16.86;42.43;102213.31;16129159;19;130354;-72
2024/01/26 02:15:11;;;;;;;0.68;0.35;;;;;;;16.82;42.53;102207.34;16122813;19;130479;-73
2024/01/26 02:20:33;;;;;;;0.55;0.38;;;;;;;16.82;42.49;102203.69;16127780;19;130518;-73
2024/01/26 02:26:09;;;;;;;0.40;0.30;;;;;;;16.80;42.53;102198.38;16122388;19;129806;-74
2024/01/26 02:31:31;;;;;;;0.68;0.38;;;;;;;16.79;42.76;102196.69;16122174;19;130554;-73
2024/01/26 02:36:53;;;;;;;0.30;0.30;;;;;;;16.77;42.92;102185.84;16127103;19;130551;-73
2024/01/26 02:42:15;;;;;;;0.22;0.22;;;;;;;16.77;42.69;102165.63;16128312;19;129734;-73
2024/01/26 02:47:37;;;;;;;0.38;0.30;;;;;;;16.75;42.91;102168.59;16121971;19;131242;-73
2024/01/26 02:52:59;;;;;;;0.60;0.20;;;;;;;16.75;42.83;102151.16;16120446;19;129668;-74
2024/01/26 02:58:21;;;;;;;0.20;0.20;;;;;;;16.73;42.69;102158.81;16128430;19;129604;-74
2024/01/26 03:03:43;;;;;;;0.10;0.10;;;;;;;16.73;42.44;102167.09;16119720;19;129510;-73
2024/01/26 03:09:07;;;;;;;0.60;0.10;;;;;;;16.72;42.52;102143.28;16124684;19;133477;-74
2024/01/26 03:14:29;;;;;;;0.40;0.20;;;;;;;16.70;42.71;102137.09;16124087;19;130390;-74
2024/01/26 03:19:51;;;;;;;1.02;0.40;;;;;;;16.69;42.86;102140.94;16119400;19;129382;-74
2024/01/26 03:25:13;;;;;;;0.38;0.28;;;;;;;16.67;42.70;102143.91;16123353;19;130275;-74
2024/01/26 03:30:38;;;;;;;0.30;0.30;;;;;;;16.65;42.74;102129.41;16126468;19;131003;-74
2024/01/26 03:35:59;;;;;;;1.10;0.60;;;;;;;16.63;42.92;102132.34;16119215;19;129518;-73
2024/01/26 03:41:22;;;;;;;0.43;0.38;;;;;;;16.62;42.98;102127.88;16122392;19;130550;-74
2024/01/26 03:46:44;;;;;;;0.80;0.60;;;;;;;16.60;42.68;102112.56;16120811;19;130713;-73
2024/01/26 03:52:05;;;;;;;1.27;0.70;;;;;;;16.58;43.05;102096.22;16121811;19;130762;-74
2024/01/26 03:57:27;;;;;;;2.15;0.95;;;;;;;16.58;42.88;102090.69;16122582;19;129593;-73
2024/01/26 04:02:49;;;;;;;2.38;0.70;;;;;;;16.57;42.96;102074.28;16120472;19;130208;-74
2024/01/26 04:08:14;;;;;;;1.00;0.80;;;;;;;16.55;42.85;102057.94;16118435;19;129601;-73
2024/01/26 04:13:36;;;;;;;1.13;0.80;;;;;;;16.54;42.94;102056.22;16118574;19;130455;-73
2024/01/26 04:18:58;;;;;;;1.25;0.73;;;;;;;16.52;42.61;102047.28;16119926;19;130399;-73
2024/01/26 04:24:21;;;;;;;2.15;0.82;;;;;;;16.51;42.81;102059.38;16118407;19;130454;-73
2024/01/26 04:29:43;;;;;;;1.73;0.75;;;;;;;16.50;42.49;102054.06;16117291;19;130155;-73
2024/01/26 04:35:05;;;;;;;0.95;0.70;;;;;;;16.49;42.88;102050.47;16124090;19;129650;-73
2024/01/26 04:40:27;;;;;;;1.33;0.80;;;;;;;16.47;42.72;102056.19;16119114;19;130784;-73
2024/01/26 04:45:49;;;;;;;0.82;0.70;;;;;;;16.47;42.98;102044.28;16119451;19;129465;-73
2024/01/26 04:51:11;;;;;;;1.13;0.80;;;;;;;16.45;42.52;102051.94;16120633;19;130712;-74
2024/01/26 04:56:33;;;;;;;1.90;0.80;;;;;;;16.44;42.83;102047.47;16114521;19;129472;-74
2024/01/26 05:01:55;;;;;;;1.75;0.82;;;;;;;16.41;42.72;102028.53;16116449;19;130472;-73
2024/01/26 05:07:17;;;;;;;1.35;1.15;;;;;;;16.41;42.56;102017.47;16116250;19;129691;-73
2024/01/26 05:12:39;;;;;;;1.85;1.00;;;;;;;16.40;43.10;102007.50;16114567;19;131957;-73
2024/01/26 05:18:01;;;;;;;1.45;0.88;;;;;;;16.37;43.03;102000.47;16115286;19;129504;-73
2024/01/26 05:23:23;;;;;;;1.55;1.02;;;;;;;16.37;42.55;101994.94;16117458;19;130237;-74
2024/01/26 05:28:45;;;;;;;1.60;0.88;;;;;;;16.35;42.86;101985.16;16114441;19;133881;-73
2024/01/26 05:34:07;;;;;;;0.70;0.70;;;;;;;16.34;42.72;101995.34;16114315;19;129617;-73
2024/01/26 05:39:30;;;;;;;2.03;0.90;;;;;;;16.32;43.08;102001.09;16118591;19;129159;-73
2024/01/26 05:44:52;;;;;;;1.73;0.88;;;;;;;16.30;43.08;101975.59;16113995;19;129256;-73
2024/01/26 05:50:16;;;;;;;1.10;0.88;;;;;;;16.29;42.84;101984.91;16115662;19;130906;-73
2024/01/26 05:55:38;;;;;;;1.48;0.95;;;;;;;16.29;43.08;101962.00;16113379;19;129706;-73
2024/01/26 06:01:00;;;;;;;1.17;1.00;;;;;;;16.28;43.42;101952.84;16116016;19;129350;-74
2024/01/26 06:06:22;;;;;;;1.10;0.70;;;;;;;16.34;43.49;101953.09;16119819;19;129427;-73
2024/01/26 06:11:44;;;;;;;1.10;0.80;;;;;;;16.42;43.27;101950.13;16134482;19;131159;-73
2024/01/26 06:17:06;;;;;;;1.50;0.90;;;;;;;16.51;42.99;101948.88;16128631;19;131092;-74
2024/01/26 06:22:29;;;;;;;4.38;1.40;;;;;;;16.62;43.04;101937.25;16129752;19;129342;-73
2024/01/26 06:27:51;;;;;;;3.63;1.20;;;;;;;16.72;43.26;101947.94;16132241;19;130556;-74
2024/01/26 06:33:12;;;;;;;5.38;1.20;;;;;;;16.83;43.65;101929.03;16133385;19;129510;-75
2024/01/26 06:38:37;;;;;;;6.07;1.20;;;;;;;16.95;43.60;101941.19;16133321;19;129615;-76
2024/01/26 06:43:59;;;;;;;4.93;1.58;;;;;;;17.04;43.85;101939.06;16130706;19;129827;-76
2024/01/26 06:49:21;;;;;;;6.20;1.25;;;;;;;17.07;43.78;101935.88;16132171;19;129611;-76
2024/01/26 06:54:43;;;;;;;9.75;1.60;;;;;;;17.11;43.59;101939.91;16143383;19;131226;-77
2024/01/26 07:00:05;;;;;;;6.78;1.42;;;;;;;17.17;44.23;101950.16;16146744;19;130010;-85
2024/01/26 07:05:27;;;;;;;7.28;1.23;;;;;;;17.23;44.26;101935.47;16133805;19;130383;-79
2024/01/26 07:10:49;;;;;;;12.63;1.60;;;;;;;17.32;44.33;101919.50;16126847;19;130860;-78
2024/01/26 07:16:11;;;;;;;4.15;1.55;;;;;;;17.34;44.40;101916.53;16159734;19;130779;-77
2024/01/26 07:21:33;;;;;;;9.98;1.40;;;;;;;17.34;44.41;101922.91;16139481;19;130858;-77
2024/01/26 07:26:56;;;;;;;6.28;1.50;;;;;;;17.37;44.04;101927.16;16184915;19;129406;-76
2024/01/26 07:32:18;;;;;;;6.85;1.25;;;;;;;17.42;44.31;101921.84;16199305;19;129248;-75
2024/01/26 07:37:40;;;;;;;3.47;1.30;;;;;;;17.45;43.92;101918.66;16197797;19;129069;-77
2024/01/26 07:43:02;;;;;;;3.38;1.10;;;;;;;17.48;44.01;101926.50;16199443;19;129001;-76
2024/01/26 07:48:24;;;;;;;2.17;0.85;;;;;;;17.49;43.72;101941.22;16201250;19;129857;-77
2024/01/26 07:53:46;;;;;;;3.95;1.20;;;;;;;17.47;43.42;101949.75;16171482;19;128988;-77
2024/01/26 07:59:08;;;;;;;4.55;1.08;;;;;;;17.47;43.21;101984.84;16136094;19;130053;-77
2024/01/26 08:04:30;;;;;;;3.53;1.00;;;;;;;17.46;43.45;101983.13;16142196;19;133092;-77
2024/01/26 08:09:52;;;;;;;3.50;0.88;;;;;;;17.42;43.43;101979.94;16138318;19;129565;-77
2024/01/26 08:15:15;;;;;;;3.30;1.17;;;;;;;17.40;43.18;101982.06;16137685;19;130565;-77
2024/01/26 08:20:37;;;;;;;3.10;0.98;;;;;;;17.36;43.50;101987.19;16136800;19;131075;-78
2024/01/26 08:25:59;;;;;;;1.63;0.68;;;;;;;17.34;43.43;102003.13;16134204;19;129752;-77
2024/01/26 08:31:21;;;;;;;1.10;0.70;;;;;;;17.31;43.10;102000.78;16125432;19;129812;-77
2024/01/26 08:36:43;;;;;;;5.03;1.10;;;;;;;17.28;43.51;102005.88;16129029;19;129567;-77
2024/01/26 08:42:05;;;;;;;1.42;0.60;;;;;;;17.26;43.27;102028.22;16124568;19;132156;-77
2024/01/26 08:47:27;;;;;;;1.55;0.80;;;;;;;17.24;43.04;102017.34;16124992;19;129480;-77
2024/01/26 08:52:49;;;;;;;0.93;0.60;;;;;;;17.24;43.36;102024.81;16119043;19;129501;-77
2024/01/26 08:58:11;;;;;;;1.52;0.70;;;;;;;17.23;43.21;102021.19;16119799;19;129887;-76
2024/01/26 09:03:33;;;;;;;1.67;0.68;;;;;;;17.24;43.44;102033.13;16121451;19;131390;-76
2024/01/26 09:08:55;;;;;;;1.00;0.50;;;;;;;17.21;43.24;102037.16;16120131;19;130387;-77
2024/01/26 09:14:17;;;;;;;2.08;0.80;;;;;;;17.20;43.30;102038.22;16120303;19;130486;-76
2024/01/26 09:19:39;;;;;;;2.75;0.63;;;;;;;17.18;43.27;102045.88;16123080;19;131957;-79
2024/01/26 09:25:01;;;;;;;3.83;0.80;;;;;;;17.15;43.69;102120.94;16120605;19;129272;-77
2024/01/26 09:30:23;;;;;;;2.80;0.80;;;;;;;17.14;43.78;102116.47;16118726;19;129470;-78
2024/01/26 09:35:47;;;;;;;6.05;0.80;;;;;;;17.12;43.56;102124.09;16121529;19;129953;-78
2024/01/26 09:41:09;;;;;;;5.05;0.75;;;;;;;17.11;43.69;102161.13;16125385;19;130858;-76
2024/01/26 09:46:31;;;;;;;4.30;0.88;;;;;;;17.12;43.63;102173.88;16134137;19;129354;-76
2024/01/26 09:51:53;;;;;;;7.20;1.13;;;;;;;17.13;43.60;102197.72;16124406;19;130424;-80
2024/01/26 09:57:16;;;;;;;3.40;0.65;;;;;;;17.15;44.16;102214.97;16137458;19;129868;-83
2024/01/26 10:02:38;;;;;;;8.15;1.08;;;;;;;17.20;44.35;102219.88;16142421;19;129855;-84
2024/01/26 10:08:00;;;;;;;11.10;1.23;;;;;;;17.24;43.90;102248.84;16134521;19;130316;-77
2024/01/26 10:13:22;;;;;;;3.20;0.90;;;;;;;17.50;43.65;102264.69;16129984;19;129121;-77
2024/01/26 10:18:46;;;;;;;6.18;0.95;;;;;;;17.61;43.63;102282.66;16128442;19;129507;-77
2024/01/26 10:24:09;;;;;;;8.95;1.00;;;;;;;17.70;43.28;102316.56;16132466;19;130750;-77
2024/01/26 10:29:31;;;;;;;5.50;1.13;;;;;;;17.81;42.94;102315.09;16129200;19;129968;-77
2024/01/26 10:34:58;;;;;;;2.83;0.70;;;;;;;17.97;42.46;102358.22;16129668;19;129252;-77
2024/01/26 10:40:21;;;;;;;3.53;0.75;;;;;;;18.53;41.66;102375.66;16130260;19;130881;-77
2024/01/26 10:45:44;;;;;;;2.72;0.60;;;;;;;18.86;41.19;102380.38;16128720;19;129549;-77
2024/01/26 10:51:06;;;;;;;2.05;0.55;;;;;;;18.93;40.91;102395.09;16128639;19;129699;-77
2024/01/26 10:56:29;;;;;;;3.40;0.50;;;;;;;18.90;40.47;102420.47;16129535;19;129083;-77
2024/01/26 11:01:53;;;;;;;2.97;0.60;;;;;;;19.01;40.09;102421.78;16129653;19;129808;-78
2024/01/26 11:07:18;;;;;;;3.03;0.90;;;;;;;19.24;39.95;102446.34;16127693;19;130142;-77
2024/01/26 11:12:40;;;;;;;2.13;0.82;;;;;;;19.47;39.31;102456.16;16125774;19;129877;-77
2024/01/26 11:18:03;;;;;;;4.22;0.88;;;;;;;19.68;38.35;102466.16;16126473;19;129616;-77
2024/01/26 11:23:25;;;;;;;3.65;0.93;;;;;;;19.79;38.04;102509.09;16126629;19;131431;-77
2024/01/26 11:28:48;;;;;;;3.80;0.90;;;;;;;19.98;37.50;102513.75;16128726;19;129772;-77
2024/01/26 11:34:22;;;;;;;2.67;0.90;;;;;;;20.39;36.69;102511.72;16126293;19;131336;-77
2024/01/26 11:39:44;;;;;;;3.97;0.98;;;;;;;21.02;36.24;102512.09;16123584;19;130205;-77
2024/01/26 11:45:13;;;;;;;4.70;1.05;;;;;;;21.80;34.45;102510.81;16127212;19;129898;-78
2024/01/26 11:50:37;;;;;;;4.22;1.00;;;;;;;22.61;33.24;102540.63;16125368;19;129691;-78
2024/01/26 11:56:00;;;;;;;3.08;0.73;;;;;;;22.23;33.34;102558.44;16123388;19;129703;-79
2024/01/26 12:01:22;;;;;;;3.58;1.00;;;;;;;22.23;33.15;102569.59;16126582;19;131185;-78
2024/01/26 12:06:45;;;;;;;3.05;0.80;;;;;;;22.64;32.37;102582.00;16122534;19;129775;-78
2024/01/26 12:12:10;;;;;;;2.83;0.93;;;;;;;23.24;31.50;102611.06;16127829;19;129800;-78
2024/01/26 12:17:33;;;;;;;5.67;1.17;;;;;;;23.84;30.73;102609.28;16122605;19;131101;-78
2024/01/26 12:22:56;;;;;;;1.33;0.80;;;;;;;24.24;30.02;102619.78;16123403;19;130439;-78
2024/01/26 12:28:19;;;;;;;4.43;1.02;;;;;;;24.02;29.28;102632.63;16138708;19;129820;-78
2024/01/26 12:33:43;;;;;;;2.58;1.00;;;;;;;23.55;29.50;102650.13;16171195;19;129612;-78
2024/01/26 12:39:05;;;;;;;5.70;0.83;;;;;;;22.99;29.80;102659.50;16197458;19;131325;-77
2024/01/26 12:44:33;;;;;;;2.03;0.68;;;;;;;22.55;30.35;102672.63;16196867;19;129184;-78
2024/01/26 12:49:55;;;;;;;1.83;0.85;;;;;;;22.22;30.39;102683.03;16188392;19;130434;-78
2024/01/26 12:55:17;;;;;;;2.15;0.80;;;;;;;22.10;31.04;102685.69;16121679;19;130809;-78
2024/01/26 13:00:39;;;;;;;3.45;0.75;;;;;;;22.05;30.84;102691.06;16119288;19;129262;-78
2024/01/26 13:06:01;;;;;;;6.57;1.15;;;;;;;21.83;31.04;102712.91;16125850;19;130607;-86
2024/01/26 13:11:23;;;;;;;17.40;1.80;;;;;;;21.61;31.60;102735.53;16125141;19;130258;-76
2024/01/26 13:16:45;;;;;;;11.10;1.20;;;;;;;21.28;31.76;102736.50;16114544;19;129489;-79
2024/01/26 13:22:08;;;;;;;10.57;1.95;;;;;;;20.99;32.71;102743.47;16121355;19;129233;-79
2024/01/26 13:27:30;;;;;;;13.75;1.73;;;;;;;20.96;32.66;102749.47;16118036;19;131236;-76
2024/01/26 13:32:52;;;;;;;16.58;1.70;;;;;;;21.01;32.86;102755.25;16116571;19;129592;-84
2024/01/26 13:38:14;;;;;;;13.27;1.35;;;;;;;20.84;32.30;102766.81;16120350;19;129585;-79
2024/01/26 13:43:36;;;;;;;10.13;1.58;;;;;;;20.92;32.59;102779.66;16111629;19;130161;-79
2024/01/26 13:48:58;;;;;;;13.10;1.92;;;;;;;21.06;31.93;102774.91;16115813;19;131310;-79
2024/01/26 13:54:20;;;;;;;10.63;1.45;;;;;;;21.14;31.88;102771.91;16115869;19;129965;-79
2024/01/26 13:59:43;;;;;;;12.40;1.45;;;;;;;21.19;32.04;102780.44;16114431;19;129974;-79
2024/01/26 14:05:05;;;;;;;11.43;1.30;;;;;;;21.20;31.51;102800.78;16115808;19;129545;-79
2024/01/26 14:10:27;;;;;;;6.15;1.40;;;;;;;21.17;31.68;102810.41;16114915;19;129111;-78
2024/01/26 14:15:49;;;;;;;7.25;1.42;;;;;;;21.13;31.73;102825.84;16112678;19;131557;-78
2024/01/26 14:21:11;;;;;;;14.05;1.50;;;;;;;21.12;31.50;102829.72;16119388;19;129519;-87
2024/01/26 14:26:35;;;;;;;12.63;1.33;;;;;;;21.08;31.49;102845.13;16126641;19;130165;-85
2024/01/26 14:31:57;;;;;;;4.25;1.00;;;;;;;20.99;31.24;102849.19;16137785;19;134676;-86
2024/01/26 14:37:19;;;;;;;6.32;1.20;;;;;;;20.89;31.18;102850.50;16135400;19;129777;-85
2024/01/26 14:42:41;;;;;;;4.80;0.93;;;;;;;20.79;31.81;102874.25;16133667;19;129763;-87
2024/01/26 14:48:07;;;;;;;8.38;1.50;;;;;;;20.66;31.37;102888.97;16162197;19;129509;-84
2024/01/26 14:53:30;;;;;;;7.65;1.45;;;;;;;20.52;31.69;102911.22;16185569;19;130821;-86
2024/01/26 14:58:52;;;;;;;11.57;1.23;;;;;;;20.38;31.86;102923.38;16188984;19;129843;-86
2024/01/26 15:04:14;;;;;;;5.68;1.33;;;;;;;20.18;32.09;102935.28;16187771;19;130636;-86
2024/01/26 15:09:37;;;;;;;9.95;1.35;;;;;;;19.98;32.32;102946.28;16185747;19;129730;-86
2024/01/26 15:14:59;;;;;;;5.85;0.93;;;;;;;19.79;32.31;102954.28;16185474;19;129466;-85
2024/01/26 15:20:24;;;;;;;7.13;1.08;;;;;;;19.62;32.69;102962.09;16179879;19;130280;-87
2024/01/26 15:25:47;;;;;;;6.60;0.95;;;;;;;19.46;32.47;102965.16;16187010;19;129298;-85
2024/01/26 15:31:09;;;;;;;7.68;1.10;;;;;;;19.30;32.83;102983.88;16184152;19;130197;-86
2024/01/26 15:36:31;;;;;;;2.10;0.68;;;;;;;19.15;33.00;102994.16;16186680;19;130119;-86
2024/01/26 15:41:53;;;;;;;5.93;1.10;;;;;;;19.01;33.43;103005.13;16181517;19;129645;-85
2024/01/26 15:47:15;;;;;;;4.05;1.10;;;;;;;18.87;33.10;103006.91;16182917;19;129817;-86
2024/01/26 15:52:39;;;;;;;3.97;0.95;;;;;;;18.74;33.86;103027.00;16182834;19;129260;-85
2024/01/26 15:58:07;;;;;;;2.45;0.82;;;;;;;18.66;34.05;103032.69;16186014;19;130297;-85
2024/01/26 16:03:29;;;;;;;3.22;0.80;;;;;;;18.62;34.07;103036.91;16183463;19;130121;-85
2024/01/26 16:08:51;;;;;;;2.55;0.93;;;;;;;18.64;34.32;103047.81;16182107;19;129728;-85
2024/01/26 16:14:13;;;;;;;4.15;0.60;;;;;;;18.64;34.26;103056.97;16185144;19;129771;-86
2024/01/26 16:19:35;;;;;;;7.45;1.02;;;;;;;18.65;34.67;103072.56;16184280;19;129469;-83
2024/01/26 16:25:00;;;;;;;11.67;1.73;;;;;;;18.66;35.19;103076.16;16179438;19;130945;-85
2024/01/26 16:30:22;;;;;;;9.82;1.60;;;;;;;18.69;35.60;103087.75;16185363;19;129793;-86
2024/01/26 16:35:45;;;;;;;21.13;2.50;;;;;;;18.68;35.11;103093.47;16188326;19;130288;-79
2024/01/26 16:41:07;;;;;;;83.63;39.90;;;;;;;18.63;35.04;103085.75;16192280;19;131207;-77
2024/01/26 16:46:29;;;;;;;122.57;61.40;;;;;;;18.58;34.72;103102.13;16182376;19;129968;-80
2024/01/26 16:51:51;;;;;;;80.22;38.20;;;;;;;18.51;35.12;103101.16;16174422;19;130456;-83
2024/01/26 16:57:13;;;;;;;67.63;30.50;;;;;;;18.42;34.72;103120.66;16182570;19;130701;-78
2024/01/26 17:02:35;;;;;;;73.35;31.15;;;;;;;18.35;34.84;103119.66;16186361;19;130416;-78
2024/01/26 17:07:58;;;;;;;59.05;23.17;;;;;;;18.28;35.02;103132.56;16190372;19;129783;-78
2024/01/26 17:13:20;;;;;;;38.38;18.13;;;;;;;18.22;35.03;103147.16;16197317;19;129773;-79
2024/01/26 17:18:42;;;;;;;61.80;41.58;;;;;;;18.15;35.44;103147.94;16195755;19;129798;-79
2024/01/26 17:24:04;;;;;;;67.82;33.42;;;;;;;18.09;35.83;103143.13;16190047;19;131291;-82
2024/01/26 17:29:26;;;;;;;80.53;37.83;;;;;;;18.03;36.33;103156.91;16179950;19;129072;-82
2024/01/26 17:34:49;;;;;;;69.45;36.53;;;;;;;17.99;37.22;103175.78;16141410;19;129495;-82
2024/01/26 17:40:11;;;;;;;44.00;27.83;;;;;;;17.97;37.00;103180.66;16114728;19;129934;-82
2024/01/26 17:45:33;;;;;;;48.60;25.83;;;;;;;17.94;37.13;103181.03;16120343;19;129308;-82
2024/01/26 17:50:55;;;;;;;46.13;23.73;;;;;;;17.90;36.69;103186.09;16118298;19;130173;-82
2024/01/26 17:56:17;;;;;;;36.15;19.73;;;;;;;17.87;36.70;103199.44;16118695;19;131051;-83
2024/01/26 18:01:39;;;;;;;31.00;17.77;;;;;;;17.81;36.37;103207.44;16117543;19;130321;-82
2024/01/26 18:07:02;;;;;;;32.08;17.13;;;;;;;17.77;36.90;103219.94;16133102;19;130657;-83
2024/01/26 18:12:24;;;;;;;31.48;16.40;;;;;;;17.72;37.04;103227.94;16128427;19;129765;-82
2024/01/26 18:17:46;;;;;;;24.95;13.90;;;;;;;17.69;37.15;103236.59;16132674;19;131641;-82
2024/01/26 18:23:08;;;;;;;33.67;11.43;;;;;;;17.65;37.05;103243.53;16129282;19;129621;-85
2024/01/26 18:28:29;;;;;;;20.88;9.73;;;;;;;17.57;37.09;103250.00;16130098;19;129703;-75
2024/01/26 18:33:51;;;;;;;33.45;8.93;;;;;;;17.66;37.19;103253.56;16127193;19;131696;-73
2024/01/26 18:39:13;;;;;;;22.00;6.30;;;;;;;17.83;36.60;103255.19;16136564;19;129668;-77
2024/01/26 18:44:36;;;;;;;12.52;5.07;;;;;;;18.05;36.76;103262.81;16148713;19;129874;-83
2024/01/26 18:49:58;;;;;;;15.82;4.57;;;;;;;18.23;37.03;103268.03;16153776;19;128883;-77
2024/01/26 18:55:20;;;;;;;14.05;4.13;;;;;;;18.37;36.91;103271.91;16150429;19;130220;-76
2024/01/26 19:00:42;;;;;;;14.25;4.32;;;;;;;18.52;36.90;103280.28;16151732;19;129901;-82
2024/01/26 19:06:08;;;;;;;21.77;4.90;;;;;;;18.65;36.70;103301.78;16131302;19;131586;-75
2024/01/26 19:11:31;;;;;;;22.70;4.13;;;;;;;18.76;36.71;103304.97;16143594;19;129433;-74
2024/01/26 19:16:55;;;;;;;21.23;3.13;;;;;;;18.91;36.75;103301.38;16139200;19;130921;-74
2024/01/26 19:22:17;;;;;;;22.77;3.58;;;;;;;19.03;37.03;103313.72;16136440;19;130303;-78
2024/01/26 19:27:39;;;;;;;14.95;3.30;;;;;;;19.12;37.10;103311.72;16128120;19;130159;-80
2024/01/26 19:33:10;;;;;;;12.98;3.15;;;;;;;19.16;37.05;103301.09;16137418;19;129363;-80
2024/01/26 19:38:32;;;;;;;10.85;3.03;;;;;;;19.17;37.00;103311.13;16148807;19;129350;-76
2024/01/26 19:43:55;;;;;;;11.48;2.58;;;;;;;19.13;37.16;103327.31;16124915;19;131115;-75
2024/01/26 19:49:17;;;;;;;12.30;2.15;;;;;;;19.07;36.82;103331.72;16123027;19;131383;-75
2024/01/26 19:54:42;;;;;;;7.85;2.20;;;;;;;19.02;37.03;103331.41;16123449;19;130371;-74
2024/01/26 20:00:05;;;;;;;6.97;2.00;;;;;;;18.95;37.11;103333.22;16123953;19;129667;-74
2024/01/26 20:05:27;;;;;;;8.05;2.30;;;;;;;18.87;37.01;103328.63;16124317;19;129493;-75
2024/01/26 20:10:49;;;;;;;7.55;1.80;;;;;;;18.80;37.30;103327.66;16131408;19;130770;-74
2024/01/26 20:16:14;;;;;;;8.32;2.20;;;;;;;18.72;37.16;103341.59;16127685;19;130016;-75
2024/01/26 20:21:36;;;;;;;;;;;;;;;18.61;37.18;103349.31;16120070;19;129446;-75
2024/01/26 20:26:59;;;;;;;6.88;1.52;;;;;;;18.56;37.39;103350.94;16123654;19;130088;-74
2024/01/26 20:32:22;;;;;;;7.13;1.52;;;;;;;18.48;37.92;103339.91;16132823;19;130474;-73
2024/01/26 20:37:44;;;;;;;5.13;1.52;;;;;;;18.42;38.02;103347.06;16171989;19;129249;-73
2024/01/26 20:43:09;;;;;;;9.55;1.80;;;;;;;18.38;38.68;103340.13;16175238;19;129125;-73
2024/01/26 20:48:31;;;;;;;8.77;1.67;;;;;;;18.31;38.89;103348.34;16153153;19;130147;-74
2024/01/26 20:53:54;;;;;;;7.07;1.60;;;;;;;18.25;39.17;103351.81;16117327;19;129339;-73
2024/01/26 20:59:16;;;;;;;9.82;1.85;;;;;;;18.19;39.31;103347.88;16122166;19;129300;-73
2024/01/26 21:04:38;;;;;;;7.80;1.30;;;;;;;18.15;39.78;103369.56;16121918;19;130498;-74
2024/01/26 21:10:00;;;;;;;9.63;1.67;;;;;;;18.10;39.85;103368.38;16125454;19;131126;-73
2024/01/26 21:15:22;;;;;;;7.47;1.77;;;;;;;18.03;39.70;103365.50;16117780;19;129430;-73
2024/01/26 21:20:44;;;;;;;8.43;1.58;;;;;;;17.96;39.92;103370.91;16119035;19;130612;-73
2024/01/26 21:26:06;;;;;;;12.30;2.25;;;;;;;17.91;39.88;103383.56;16121596;19;129887;-74
2024/01/26 21:31:31;;;;;;;7.65;1.60;;;;;;;17.85;39.63;103379.63;16119074;19;130453;-78
2024/01/26 21:36:53;;;;;;;10.00;1.97;;;;;;;17.78;39.81;103368.41;16116489;19;129561;-74
2024/01/26 21:42:16;;;;;;;6.18;1.48;;;;;;;17.73;40.05;103365.28;16130201;19;129630;-73
2024/01/26 21:47:40;;;;;;;8.95;1.92;;;;;;;17.69;40.21;103375.03;16134668;19;130227;-75
2024/01/26 21:53:05;;;;;;;8.60;1.42;;;;;;;17.63;40.40;103378.50;16132669;19;130859;-74
2024/01/26 21:58:27;;;;;;;7.70;1.90;;;;;;;17.56;40.76;103369.19;16128377;19;130486;-74
2024/01/26 22:03:49;;;;;;;7.82;1.67;;;;;;;17.50;40.91;103399.28;16129077;19;129609;-76
2024/01/26 22:09:12;;;;;;;11.57;2.03;;;;;;;17.46;40.96;103402.56;16138831;19;130776;-74
2024/01/26 22:14:34;;;;;;;16.67;2.13;;;;;;;17.41;40.66;103403.13;16132626;19;130854;-74
2024/01/26 22:19:56;;;;;;;6.68;1.50;;;;;;;17.35;40.78;103399.16;16127669;19;129716;-74
2024/01/26 22:25:18;;;;;;;7.45;1.45;;;;;;;17.28;41.23;103398.16;16128987;19;129422;-74
2024/01/26 22:30:42;;;;;;;8.13;1.40;;;;;;;17.22;40.92;103396.94;16130118;19;130210;-74
2024/01/26 22:36:04;;;;;;;8.25;1.63;;;;;;;17.16;41.03;103403.16;16128597;19;130228;-74
2024/01/26 22:41:26;;;;;;;7.78;1.42;;;;;;;17.10;41.22;103406.66;16129852;19;130054;-74
2024/01/26 22:46:48;;;;;;;8.35;2.03;;;;;;;17.04;41.40;103411.00;16128785;19;129665;-74
2024/01/26 22:52:10;;;;;;;5.38;1.20;;;;;;;17.00;41.72;103425.31;16130685;19;130432;-74
2024/01/26 22:57:33;;;;;;;8.77;1.20;;;;;;;16.92;41.79;103416.00;16125769;19;130145;-74
2024/01/26 23:02:56;;;;;;;5.47;1.35;;;;;;;16.89;42.08;103424.63;16126196;19;129794;-74
2024/01/26 23:08:18;;;;;;;3.03;1.00;;;;;;;16.84;42.01;103424.31;16129669;19;129580;-75
2024/01/26 23:13:40;;;;;;;3.35;1.13;;;;;;;16.79;42.06;103418.41;16128032;19;130732;-74
2024/01/26 23:19:02;;;;;;;4.07;1.25;;;;;;;16.75;41.98;103433.63;16125815;19;131056;-74
2024/01/26 23:24:24;;;;;;;4.60;1.00;;;;;;;16.70;42.20;103441.56;16123255;19;130412;-74
2024/01/26 23:29:46;;;;;;;4.57;1.08;;;;;;;16.65;42.07;103450.34;16125031;19;130055;-74
2024/01/26 23:35:08;;;;;;;2.47;1.00;;;;;;;16.59;42.26;103440.84;16122760;19;130634;-74
2024/01/26 23:40:30;;;;;;;2.90;0.90;;;;;;;16.56;42.50;103449.47;16125636;19;131730;-74
2024/01/26 23:45:52;;;;;;;1.55;0.80;;;;;;;16.52;42.32;103441.69;16122757;19;129652;-74
2024/01/26 23:51:15;;;;;;;2.28;0.90;;;;;;;16.47;42.13;103448.59;16123902;19;129931;-74
2024/01/26 23:56:37;;;;;;;3.08;0.90;;;;;;;16.43;42.16;103446.34;16123028;19;131276;-74
